Aviation Digital Data Service (ADDS)

Output produced by TAFs form (0257 UTC 21 January 2018)
found at http://www.aviationweather.gov/adds/tafs/
 
KMCO 210253Z 06006KT 10SM BKN140 OVC250 14/10 A3026 RMK AO2 SLP248 T01440100 50002
KMCO 202325Z 2100/2206 07005KT P6SM SCT040 BKN150 
     FM211000 03003KT P6SM BKN120 BKN200 
     TEMPO 2110/2112 5SM BR 
     FM211600 08008KT P6SM SCT035 SCT120 
     FM220000 07005KT P6SM FEW030 SCT250